sensor_id;sensor_type;location;lat;lon;timestamp;pressure;altitude;pressure_sealevel;temperature;humidity
48778;BME280;34578;0.000;0.000;2023-03-16T00:03:47;96874.63;;;16.40;55.46
48778;BME280;34578;0.000;0.000;2023-03-16T00:08:48;96872.06;;;16.39;54.79
48778;BME280;34578;0.000;0.000;2023-03-16T00:13:48;96879.69;;;16.42;55.03
48778;BME280;34578;0.000;0.000;2023-03-16T00:18:49;96873.75;;;16.38;54.79
48778;BME280;34578;0.000;0.000;2023-03-16T00:23:49;96883.91;;;16.41;54.86
48778;BME280;34578;0.000;0.000;2023-03-16T00:28:50;96881.38;;;16.41;54.48
48778;BME280;34578;0.000;0.000;2023-03-16T00:33:53;96875.50;;;16.45;54.45
48778;BME280;34578;0.000;0.000;2023-03-16T00:38:54;96882.25;;;16.46;54.00
48778;BME280;34578;0.000;0.000;2023-03-16T00:43:54;96878.00;;;16.42;54.52
48778;BME280;34578;0.000;0.000;2023-03-16T00:48:55;96867.94;;;16.47;54.15
48778;BME280;34578;0.000;0.000;2023-03-16T00:53:55;96857.91;;;16.54;54.48
48778;BME280;34578;0.000;0.000;2023-03-16T00:58:56;96854.53;;;16.55;54.34
48778;BME280;34578;0.000;0.000;2023-03-16T01:03:57;96852.00;;;16.52;53.90
48778;BME280;34578;0.000;0.000;2023-03-16T01:08:58;96842.63;;;16.42;53.66
48778;BME280;34578;0.000;0.000;2023-03-16T01:13:59;96844.34;;;16.46;53.82
48778;BME280;34578;0.000;0.000;2023-03-16T01:19:00;96829.16;;;16.42;54.25
48778;BME280;34578;0.000;0.000;2023-03-16T01:24:01;96843.50;;;16.44;53.71
48778;BME280;34578;0.000;0.000;2023-03-16T01:29:01;96830.00;;;16.42;54.05
48778;BME280;34578;0.000;0.000;2023-03-16T01:34:02;96820.69;;;16.37;54.17
48778;BME280;34578;0.000;0.000;2023-03-16T01:39:03;96821.53;;;16.39;53.98
48778;BME280;34578;0.000;0.000;2023-03-16T01:44:22;96819.84;;;16.38;54.19
48778;BME280;34578;0.000;0.000;2023-03-16T01:49:33;96825.75;;;16.38;53.77
48778;BME280;34578;0.000;0.000;2023-03-16T01:54:47;96826.56;;;16.37;53.62
48778;BME280;34578;0.000;0.000;2023-03-16T02:05:07;96817.25;;;16.33;53.97
48778;BME280;34578;0.000;0.000;2023-03-16T02:10:15;96820.75;;;16.44;53.69
48778;BME280;34578;0.000;0.000;2023-03-16T02:15:16;96815.75;;;16.50;53.67
48778;BME280;34578;0.000;0.000;2023-03-16T02:25:26;96808.88;;;16.37;52.72
48778;BME280;34578;0.000;0.000;2023-03-16T02:30:29;96805.47;;;16.35;53.06
48778;BME280;34578;0.000;0.000;2023-03-16T02:35:33;96805.41;;;16.29;52.61
48778;BME280;34578;0.000;0.000;2023-03-16T02:40:35;96792.78;;;16.29;52.40
48778;BME280;34578;0.000;0.000;2023-03-16T02:45:55;96797.00;;;16.30;52.35
48778;BME280;34578;0.000;0.000;2023-03-16T02:51:00;96790.22;;;16.26;52.40
48778;BME280;34578;0.000;0.000;2023-03-16T02:56:01;96773.38;;;16.25;51.96
48778;BME280;34578;0.000;0.000;2023-03-16T03:01:03;96765.78;;;16.24;51.81
48778;BME280;34578;0.000;0.000;2023-03-16T03:06:06;96759.06;;;16.24;51.70
48778;BME280;34578;0.000;0.000;2023-03-16T03:11:09;96760.72;;;16.24;50.92
48778;BME280;34578;0.000;0.000;2023-03-16T03:16:11;96757.34;;;16.22;51.66
48778;BME280;34578;0.000;0.000;2023-03-16T03:21:12;96765.84;;;16.27;50.88
48778;BME280;34578;0.000;0.000;2023-03-16T03:26:13;96768.41;;;16.34;51.23
48778;BME280;34578;0.000;0.000;2023-03-16T03:31:18;96761.78;;;16.42;51.63
48778;BME280;34578;0.000;0.000;2023-03-16T03:36:20;96747.44;;;16.43;50.10
48778;BME280;34578;0.000;0.000;2023-03-16T03:41:21;96748.19;;;16.33;50.35
48778;BME280;34578;0.000;0.000;2023-03-16T03:46:22;96751.53;;;16.30;50.64
48778;BME280;34578;0.000;0.000;2023-03-16T03:51:24;96757.41;;;16.29;50.48
48778;BME280;34578;0.000;0.000;2023-03-16T03:56:34;96759.09;;;16.30;50.69
48778;BME280;34578;0.000;0.000;2023-03-16T04:01:35;96743.06;;;16.25;50.67
48778;BME280;34578;0.000;0.000;2023-03-16T04:06:35;96758.25;;;16.28;50.59
48778;BME280;34578;0.000;0.000;2023-03-16T04:11:36;96750.66;;;16.25;50.03
48778;BME280;34578;0.000;0.000;2023-03-16T04:16:37;96741.38;;;16.24;50.08
48778;BME280;34578;0.000;0.000;2023-03-16T04:21:38;96745.63;;;16.27;49.93
48778;BME280;34578;0.000;0.000;2023-03-16T04:26:39;96748.13;;;16.25;50.24
48778;BME280;34578;0.000;0.000;2023-03-16T04:31:42;96751.44;;;16.21;50.01
48778;BME280;34578;0.000;0.000;2023-03-16T04:36:43;96746.44;;;16.24;49.85
48778;BME280;34578;0.000;0.000;2023-03-16T04:41:44;96744.69;;;16.17;49.80
48778;BME280;34578;0.000;0.000;2023-03-16T04:46:53;96738.09;;;16.34;49.51
48778;BME280;34578;0.000;0.000;2023-03-16T04:51:55;96728.91;;;16.38;49.51
48778;BME280;34578;0.000;0.000;2023-03-16T04:56:56;96725.56;;;16.43;47.90
48778;BME280;34578;0.000;0.000;2023-03-16T05:02:04;96717.13;;;16.43;47.99
48778;BME280;34578;0.000;0.000;2023-03-16T05:07:05;96715.50;;;16.45;47.46
48778;BME280;34578;0.000;0.000;2023-03-16T05:12:10;96708.75;;;16.47;47.08
48778;BME280;34578;0.000;0.000;2023-03-16T05:17:11;96706.22;;;16.47;47.57
48778;BME280;34578;0.000;0.000;2023-03-16T05:22:15;96702.84;;;16.46;47.85
48778;BME280;34578;0.000;0.000;2023-03-16T05:27:31;96700.34;;;16.48;47.14
48778;BME280;34578;0.000;0.000;2023-03-16T05:32:33;96686.81;;;16.41;47.23
48778;BME280;34578;0.000;0.000;2023-03-16T05:37:33;96695.25;;;16.43;47.21
48778;BME280;34578;0.000;0.000;2023-03-16T05:42:38;96698.59;;;16.38;46.51
48778;BME280;34578;0.000;0.000;2023-03-16T05:47:40;96690.94;;;16.36;47.23
48778;BME280;34578;0.000;0.000;2023-03-16T05:52:42;96703.69;;;16.44;44.33
48778;BME280;34578;0.000;0.000;2023-03-16T05:57:50;96713.84;;;16.48;43.48
48778;BME280;34578;0.000;0.000;2023-03-16T06:02:51;96712.22;;;16.56;43.85
48778;BME280;34578;0.000;0.000;2023-03-16T06:07:52;96721.50;;;16.60;48.00
48778;BME280;34578;0.000;0.000;2023-03-16T06:12:53;96723.19;;;16.61;48.96
48778;BME280;34578;0.000;0.000;2023-03-16T06:17:55;96721.47;;;16.59;47.60
48778;BME280;34578;0.000;0.000;2023-03-16T06:22:55;96733.28;;;16.61;44.75
48778;BME280;34578;0.000;0.000;2023-03-16T06:27:56;96732.06;;;16.20;42.08
48778;BME280;34578;0.000;0.000;2023-03-16T06:32:56;96721.78;;;15.99;42.24
48778;BME280;34578;0.000;0.000;2023-03-16T06:37:59;96713.63;;;16.27;44.18
48778;BME280;34578;0.000;0.000;2023-03-16T06:43:20;96711.09;;;16.30;43.79
48778;BME280;34578;0.000;0.000;2023-03-16T06:48:20;96713.75;;;16.38;44.64
48778;BME280;34578;0.000;0.000;2023-03-16T06:53:21;96714.63;;;16.44;45.54
48778;BME280;34578;0.000;0.000;2023-03-16T06:58:22;96718.84;;;16.44;46.34
48778;BME280;34578;0.000;0.000;2023-03-16T07:03:22;96723.94;;;16.48;45.07
48778;BME280;34578;0.000;0.000;2023-03-16T07:08:29;96731.53;;;16.48;46.21
48778;BME280;34578;0.000;0.000;2023-03-16T07:13:29;96726.47;;;16.51;45.32
48778;BME280;34578;0.000;0.000;2023-03-16T07:18:30;96715.50;;;16.48;45.78
48778;BME280;34578;0.000;0.000;2023-03-16T07:23:31;96691.91;;;16.49;46.15
48778;BME280;34578;0.000;0.000;2023-03-16T07:28:37;96697.03;;;16.58;47.16
48778;BME280;34578;0.000;0.000;2023-03-16T07:33:39;96684.41;;;16.59;48.91
48778;BME280;34578;0.000;0.000;2023-03-16T07:38:42;96658.28;;;16.56;45.75
48778;BME280;34578;0.000;0.000;2023-03-16T07:43:45;96663.31;;;16.54;47.59
48778;BME280;34578;0.000;0.000;2023-03-16T07:48:48;96641.44;;;16.55;45.01
48778;BME280;34578;0.000;0.000;2023-03-16T07:53:48;96622.88;;;16.48;45.49
48778;BME280;34578;0.000;0.000;2023-03-16T07:58:57;96645.63;;;16.54;45.19
48778;BME280;34578;0.000;0.000;2023-03-16T08:03:58;96665.88;;;16.56;44.28
48778;BME280;34578;0.000;0.000;2023-03-16T08:08:58;96670.91;;;16.54;44.69
48778;BME280;34578;0.000;0.000;2023-03-16T08:14:06;96655.72;;;16.54;45.33
48778;BME280;34578;0.000;0.000;2023-03-16T08:19:32;96654.06;;;16.55;45.58
48778;BME280;34578;0.000;0.000;2023-03-16T08:24:35;96659.97;;;16.54;44.61
48778;BME280;34578;0.000;0.000;2023-03-16T08:29:37;96659.94;;;16.55;45.03
48778;BME280;34578;0.000;0.000;2023-03-16T08:34:40;96659.13;;;16.56;45.07
48778;BME280;34578;0.000;0.000;2023-03-16T08:39:41;96656.59;;;16.58;45.23
48778;BME280;34578;0.000;0.000;2023-03-16T08:44:47;96653.25;;;16.57;49.17
48778;BME280;34578;0.000;0.000;2023-03-16T08:49:47;96647.34;;;16.58;50.21
48778;BME280;34578;0.000;0.000;2023-03-16T08:54:49;96665.88;;;16.56;48.58
48778;BME280;34578;0.000;0.000;2023-03-16T08:59:50;96656.63;;;16.59;45.09
48778;BME280;34578;0.000;0.000;2023-03-16T09:04:50;96641.44;;;16.55;45.12
48778;BME280;34578;0.000;0.000;2023-03-16T09:09:51;96643.97;;;16.58;44.91
48778;BME280;34578;0.000;0.000;2023-03-16T09:14:52;96648.19;;;16.57;44.29
48778;BME280;34578;0.000;0.000;2023-03-16T09:19:53;96643.13;;;16.57;43.67
48778;BME280;34578;0.000;0.000;2023-03-16T09:24:54;96608.59;;;16.56;43.81
48778;BME280;34578;0.000;0.000;2023-03-16T09:29:55;96610.28;;;16.57;43.60
48778;BME280;34578;0.000;0.000;2023-03-16T09:34:55;96603.53;;;16.56;43.68
48778;BME280;34578;0.000;0.000;2023-03-16T09:39:55;96601.81;;;16.55;43.74
48778;BME280;34578;0.000;0.000;2023-03-16T09:45:11;96590.88;;;16.55;43.33
48778;BME280;34578;0.000;0.000;2023-03-16T09:50:24;96574.88;;;16.54;43.42
48778;BME280;34578;0.000;0.000;2023-03-16T09:55:31;96578.28;;;16.56;43.76
48778;BME280;34578;0.000;0.000;2023-03-16T10:00:37;96596.78;;;16.57;49.85
48778;BME280;34578;0.000;0.000;2023-03-16T10:05:41;96585.00;;;16.57;50.30
48778;BME280;34578;0.000;0.000;2023-03-16T10:10:57;96585.81;;;16.53;50.56
48778;BME280;34578;0.000;0.000;2023-03-16T10:16:17;96575.75;;;16.59;47.46
48778;BME280;34578;0.000;0.000;2023-03-16T10:21:20;96563.94;;;16.58;46.15
48778;BME280;34578;0.000;0.000;2023-03-16T10:26:30;96576.59;;;16.60;46.37
48778;BME280;34578;0.000;0.000;2023-03-16T10:31:33;96573.22;;;16.59;46.49
48778;BME280;34578;0.000;0.000;2023-03-16T10:36:37;96570.66;;;16.58;46.12
48778;BME280;34578;0.000;0.000;2023-03-16T10:41:41;96575.75;;;16.56;47.06
48778;BME280;34578;0.000;0.000;2023-03-16T10:46:45;96579.13;;;16.58;46.36
48778;BME280;34578;0.000;0.000;2023-03-16T10:51:52;96568.97;;;16.55;46.31
48778;BME280;34578;0.000;0.000;2023-03-16T10:56:53;96580.78;;;16.56;45.69
48778;BME280;34578;0.000;0.000;2023-03-16T11:01:55;96583.31;;;16.56;45.58
48778;BME280;34578;0.000;0.000;2023-03-16T11:06:56;96581.63;;;16.57;45.50
48778;BME280;34578;0.000;0.000;2023-03-16T11:11:58;96579.13;;;16.58;45.21
48778;BME280;34578;0.000;0.000;2023-03-16T11:17:02;96562.28;;;16.62;49.20
48778;BME280;34578;0.000;0.000;2023-03-16T11:22:16;96558.09;;;16.68;48.37
48778;BME280;34578;0.000;0.000;2023-03-16T11:27:23;96551.38;;;16.73;48.31
48778;BME280;34578;0.000;0.000;2023-03-16T11:32:28;96547.97;;;16.71;46.56
48778;BME280;34578;0.000;0.000;2023-03-16T11:42:58;96545.47;;;16.73;45.43
48778;BME280;34578;0.000;0.000;2023-03-16T11:48:03;96543.78;;;16.67;45.58
48778;BME280;34578;0.000;0.000;2023-03-16T11:58:49;96537.84;;;16.67;47.28
48778;BME280;34578;0.000;0.000;2023-03-16T12:04:06;96532.81;;;16.68;47.55
48778;BME280;34578;0.000;0.000;2023-03-16T12:25:24;96522.72;;;16.68;47.44
48778;BME280;34578;0.000;0.000;2023-03-16T12:35:54;96509.25;;;16.72;48.49
48778;BME280;34578;0.000;0.000;2023-03-16T12:52:04;96489.88;;;16.70;48.74
48778;BME280;34578;0.000;0.000;2023-03-16T12:57:06;96493.22;;;16.67;48.47
48778;BME280;34578;0.000;0.000;2023-03-16T13:02:25;96497.44;;;16.68;47.94
48778;BME280;34578;0.000;0.000;2023-03-16T13:07:29;96482.25;;;16.64;47.87
48778;BME280;34578;0.000;0.000;2023-03-16T13:12:32;96489.00;;;16.67;47.83
48778;BME280;34578;0.000;0.000;2023-03-16T13:17:36;96478.91;;;16.66;48.07
48778;BME280;34578;0.000;0.000;2023-03-16T13:22:46;96483.09;;;16.67;47.60
48778;BME280;34578;0.000;0.000;2023-03-16T13:27:51;96474.69;;;16.65;47.52
48778;BME280;34578;0.000;0.000;2023-03-16T13:32:55;96467.94;;;16.64;47.38
48778;BME280;34578;0.000;0.000;2023-03-16T13:38:03;96463.72;;;16.60;47.75
48778;BME280;34578;0.000;0.000;2023-03-16T13:43:14;96460.34;;;16.61;47.73
48778;BME280;34578;0.000;0.000;2023-03-16T13:48:15;96451.94;;;16.65;47.22
48778;BME280;34578;0.000;0.000;2023-03-16T13:53:23;96446.88;;;16.71;49.31
48778;BME280;34578;0.000;0.000;2023-03-16T14:03:38;96443.50;;;16.69;49.79
48778;BME280;34578;0.000;0.000;2023-03-16T14:08:45;96437.59;;;16.66;48.93
48778;BME280;34578;0.000;0.000;2023-03-16T14:13:52;96430.00;;;16.61;48.78
48778;BME280;34578;0.000;0.000;2023-03-16T14:18:57;96421.59;;;16.64;48.89
48778;BME280;34578;0.000;0.000;2023-03-16T14:24:05;96421.59;;;16.62;48.63
48778;BME280;34578;0.000;0.000;2023-03-16T14:29:18;96426.63;;;16.62;48.25
48778;BME280;34578;0.000;0.000;2023-03-16T14:34:33;96426.63;;;16.62;47.63
48778;BME280;34578;0.000;0.000;2023-03-16T14:39:34;96416.53;;;16.64;47.43
48778;BME280;34578;0.000;0.000;2023-03-16T14:44:35;96414.84;;;16.63;47.75
48778;BME280;34578;0.000;0.000;2023-03-16T14:49:40;96407.28;;;16.63;47.94
48778;BME280;34578;0.000;0.000;2023-03-16T14:54:40;96395.47;;;16.62;47.45
48778;BME280;34578;0.000;0.000;2023-03-16T14:59:41;96398.00;;;16.62;47.49
48778;BME280;34578;0.000;0.000;2023-03-16T15:04:42;96401.38;;;16.62;47.57
48778;BME280;34578;0.000;0.000;2023-03-16T15:09:43;96408.13;;;16.66;49.67
48778;BME280;34578;0.000;0.000;2023-03-16T15:14:46;96407.28;;;16.72;50.68
48778;BME280;34578;0.000;0.000;2023-03-16T15:20:05;96398.00;;;16.69;49.91
48778;BME280;34578;0.000;0.000;2023-03-16T15:30:27;96403.91;;;16.61;49.73
48778;BME280;34578;0.000;0.000;2023-03-16T15:35:28;96413.16;;;16.60;48.45
48778;BME280;34578;0.000;0.000;2023-03-16T15:40:28;96420.72;;;16.59;48.31
48778;BME280;34578;0.000;0.000;2023-03-16T15:45:30;96418.22;;;16.53;47.71
48778;BME280;34578;0.000;0.000;2023-03-16T15:50:30;96424.94;;;16.61;47.70
48778;BME280;34578;0.000;0.000;2023-03-16T15:55:36;96427.50;;;16.63;47.28
48778;BME280;34578;0.000;0.000;2023-03-16T16:00:37;96424.94;;;16.61;48.11
48778;BME280;34578;0.000;0.000;2023-03-16T16:05:39;96425.78;;;16.60;47.71
48778;BME280;34578;0.000;0.000;2023-03-16T16:10:41;96439.28;;;16.61;47.45
48778;BME280;34578;0.000;0.000;2023-03-16T16:15:42;96423.28;;;16.60;47.32
48778;BME280;34578;0.000;0.000;2023-03-16T16:20:44;96424.97;;;16.58;47.89
48778;BME280;34578;0.000;0.000;2023-03-16T16:25:45;96418.22;;;16.60;49.49
48778;BME280;34578;0.000;0.000;2023-03-16T16:30:46;96425.81;;;16.67;51.08
48778;BME280;34578;0.000;0.000;2023-03-16T16:35:47;96424.97;;;16.70;50.90
48778;BME280;34578;0.000;0.000;2023-03-16T16:40:48;96414.00;;;16.62;49.92
48778;BME280;34578;0.000;0.000;2023-03-16T16:45:49;96418.22;;;16.62;48.81
48778;BME280;34578;0.000;0.000;2023-03-16T16:50:49;96424.13;;;16.64;48.10
48778;BME280;34578;0.000;0.000;2023-03-16T16:55:51;96412.34;;;16.64;48.24
48778;BME280;34578;0.000;0.000;2023-03-16T17:00:53;96411.50;;;16.65;47.69
48778;BME280;34578;0.000;0.000;2023-03-16T17:05:56;96407.28;;;16.64;47.61
48778;BME280;34578;0.000;0.000;2023-03-16T17:10:57;96408.09;;;16.63;47.64
48778;BME280;34578;0.000;0.000;2023-03-16T17:15:57;96403.03;;;16.59;47.82
48778;BME280;34578;0.000;0.000;2023-03-16T17:20:59;96409.78;;;16.61;47.52
48778;BME280;34578;0.000;0.000;2023-03-16T17:26:02;96406.41;;;16.59;47.29
48778;BME280;34578;0.000;0.000;2023-03-16T17:31:10;96424.13;;;16.65;47.13
48778;BME280;34578;0.000;0.000;2023-03-16T17:36:14;96424.13;;;16.65;47.27
48778;BME280;34578;0.000;0.000;2023-03-16T17:41:25;96415.72;;;16.66;47.90
48778;BME280;34578;0.000;0.000;2023-03-16T17:46:28;96414.88;;;16.76;49.99
48778;BME280;34578;0.000;0.000;2023-03-16T17:51:29;96411.50;;;16.80;51.06
48778;BME280;34578;0.000;0.000;2023-03-16T17:56:31;96412.34;;;16.72;49.12
48778;BME280;34578;0.000;0.000;2023-03-16T18:01:32;96408.13;;;16.69;48.50
48778;BME280;34578;0.000;0.000;2023-03-16T18:06:34;96402.25;;;16.72;47.98
48778;BME280;34578;0.000;0.000;2023-03-16T18:11:36;96394.66;;;16.73;47.32
48778;BME280;34578;0.000;0.000;2023-03-16T18:16:39;96398.03;;;16.71;47.47
48778;BME280;34578;0.000;0.000;2023-03-16T18:21:39;96395.50;;;16.71;47.66
48778;BME280;34578;0.000;0.000;2023-03-16T18:26:40;96397.19;;;16.69;47.76
48778;BME280;34578;0.000;0.000;2023-03-16T18:31:41;96398.03;;;16.66;49.08
48778;BME280;34578;0.000;0.000;2023-03-16T18:36:41;96397.16;;;16.70;48.03
48778;BME280;34578;0.000;0.000;2023-03-16T18:41:45;96393.81;;;16.68;47.31
48778;BME280;34578;0.000;0.000;2023-03-16T18:46:48;96402.25;;;16.69;47.66
48778;BME280;34578;0.000;0.000;2023-03-16T18:51:51;96391.28;;;16.65;47.51
48778;BME280;34578;0.000;0.000;2023-03-16T18:56:53;96393.81;;;16.68;47.67
48778;BME280;34578;0.000;0.000;2023-03-16T19:01:53;96390.47;;;16.72;49.28
48778;BME280;34578;0.000;0.000;2023-03-16T19:06:54;96388.78;;;16.78;50.04
48778;BME280;34578;0.000;0.000;2023-03-16T19:11:56;96388.75;;;16.80;50.25
48778;BME280;34578;0.000;0.000;2023-03-16T19:16:57;96381.19;;;16.77;48.72
48778;BME280;34578;0.000;0.000;2023-03-16T19:22:06;96393.81;;;16.73;47.94
48778;BME280;34578;0.000;0.000;2023-03-16T19:27:32;96387.91;;;16.71;48.31
48778;BME280;34578;0.000;0.000;2023-03-16T19:32:34;96391.28;;;16.71;47.94
48778;BME280;34578;0.000;0.000;2023-03-16T19:37:37;96384.53;;;16.70;47.99
48778;BME280;34578;0.000;0.000;2023-03-16T19:42:38;96389.59;;;16.70;47.78
48778;BME280;34578;0.000;0.000;2023-03-16T19:47:40;96374.44;;;16.64;47.62
48778;BME280;34578;0.000;0.000;2023-03-16T19:52:41;96376.09;;;16.68;47.83
48778;BME280;34578;0.000;0.000;2023-03-16T19:57:41;96371.84;;;16.46;45.48
48778;BME280;34578;0.000;0.000;2023-03-16T20:02:42;96379.47;;;16.61;46.10
48778;BME280;34578;0.000;0.000;2023-03-16T20:07:42;96379.47;;;16.61;46.91
48778;BME280;34578;0.000;0.000;2023-03-16T20:12:43;96366.00;;;16.65;47.26
48778;BME280;34578;0.000;0.000;2023-03-16T20:17:43;96349.97;;;16.59;47.38
48778;BME280;34578;0.000;0.000;2023-03-16T20:22:44;96357.59;;;16.72;50.28
48778;BME280;34578;0.000;0.000;2023-03-16T20:27:50;96357.59;;;16.77;50.22
48778;BME280;34578;0.000;0.000;2023-03-16T20:32:52;96350.00;;;16.72;48.24
48778;BME280;34578;0.000;0.000;2023-03-16T20:37:54;96352.53;;;16.72;48.04
48778;BME280;34578;0.000;0.000;2023-03-16T20:42:54;96349.16;;;16.70;48.46
48778;BME280;34578;0.000;0.000;2023-03-16T20:47:55;96344.09;;;16.70;47.70
48778;BME280;34578;0.000;0.000;2023-03-16T20:52:58;96353.34;;;16.71;48.01
48778;BME280;34578;0.000;0.000;2023-03-16T20:57:58;96341.56;;;16.72;47.87
48778;BME280;34578;0.000;0.000;2023-03-16T21:03:04;96331.47;;;16.72;47.56
48778;BME280;34578;0.000;0.000;2023-03-16T21:08:04;96332.31;;;16.72;49.11
48778;BME280;34578;0.000;0.000;2023-03-16T21:13:08;96345.78;;;16.71;49.25
48778;BME280;34578;0.000;0.000;2023-03-16T21:18:18;96337.38;;;16.72;48.37
48778;BME280;34578;0.000;0.000;2023-03-16T21:23:21;96325.56;;;16.71;48.88
48778;BME280;34578;0.000;0.000;2023-03-16T21:28:23;96332.31;;;16.75;48.98
48778;BME280;34578;0.000;0.000;2023-03-16T21:33:30;96328.09;;;16.78;50.53
48778;BME280;34578;0.000;0.000;2023-03-16T21:38:31;96332.31;;;16.84;53.08
48778;BME280;34578;0.000;0.000;2023-03-16T21:43:32;96318.00;;;16.83;54.08
48778;BME280;34578;0.000;0.000;2023-03-16T21:48:36;96322.19;;;16.82;52.02
48778;BME280;34578;0.000;0.000;2023-03-16T21:53:37;96311.22;;;16.79;49.58
48778;BME280;34578;0.000;0.000;2023-03-16T21:58:38;96312.94;;;16.78;49.63
48778;BME280;34578;0.000;0.000;2023-03-16T22:03:39;96311.25;;;16.77;48.81
48778;BME280;34578;0.000;0.000;2023-03-16T22:08:39;96300.28;;;16.77;48.07
48778;BME280;34578;0.000;0.000;2023-03-16T22:13:39;96305.34;;;16.77;47.62
48778;BME280;34578;0.000;0.000;2023-03-16T22:18:40;96298.59;;;16.76;47.65
48778;BME280;34578;0.000;0.000;2023-03-16T22:23:41;96284.28;;;16.75;47.42
48778;BME280;34578;0.000;0.000;2023-03-16T22:28:41;96269.13;;;16.72;47.33
48778;BME280;34578;0.000;0.000;2023-03-16T22:33:42;96277.53;;;16.74;47.11
48778;BME280;34578;0.000;0.000;2023-03-16T22:38:45;96269.13;;;16.72;47.11
48778;BME280;34578;0.000;0.000;2023-03-16T22:43:49;96263.22;;;16.73;47.03
48778;BME280;34578;0.000;0.000;2023-03-16T22:48:50;96269.09;;;16.73;46.93
48778;BME280;34578;0.000;0.000;2023-03-16T22:53:53;96259.84;;;16.71;53.88
48778;BME280;34578;0.000;0.000;2023-03-16T22:58:57;96263.22;;;16.73;53.80
48778;BME280;34578;0.000;0.000;2023-03-16T23:04:00;96253.13;;;16.73;52.92
48778;BME280;34578;0.000;0.000;2023-03-16T23:09:01;96261.53;;;16.72;48.08
48778;BME280;34578;0.000;0.000;2023-03-16T23:14:01;96258.16;;;16.73;47.52
48778;BME280;34578;0.000;0.000;2023-03-16T23:19:19;96261.53;;;16.72;47.85
48778;BME280;34578;0.000;0.000;2023-03-16T23:24:21;96257.31;;;16.71;47.80
48778;BME280;34578;0.000;0.000;2023-03-16T23:29:22;96249.72;;;16.71;47.22
48778;BME280;34578;0.000;0.000;2023-03-16T23:34:24;96257.31;;;16.71;47.05
48778;BME280;34578;0.000;0.000;2023-03-16T23:39:25;96248.91;;;16.71;47.00
48778;BME280;34578;0.000;0.000;2023-03-16T23:44:27;96231.22;;;16.66;46.86
48778;BME280;34578;0.000;0.000;2023-03-16T23:49:29;96245.53;;;16.69;46.94
48778;BME280;34578;0.000;0.000;2023-03-16T23:54:31;96244.69;;;16.70;46.45
48778;BME280;34578;0.000;0.000;2023-03-16T23:59:32;96246.38;;;16.69;46.62
